Time;durP1;ratioP1;P1;durP2;ratioP2;P2;SDS_P1;SDS_P2;PMS_P1;PMS_P2;Temp;Humidity;BMP_temperature;BMP_pressure;BME280_temperature;BME280_humidity;BME280_pressure;Samples;Min_cycle;Max_cycle;Signal;HPM_P1;HPM_P2
2024/01/25 00:02:18;;;;;;;28.30;4.57;;;7.80;99.90;;;;;;5012910;28;20509;-84
2024/01/25 00:04:43;;;;;;;24.80;4.77;;;7.80;99.90;;;;;;5013045;28;20029;-84
2024/01/25 00:07:09;;;;;;;26.63;4.50;;;7.70;99.90;;;;;;5011797;28;20037;-83
2024/01/25 00:09:35;;;;;;;22.53;4.77;;;7.70;99.90;;;;;;5012935;28;20024;-84
2024/01/25 00:12:02;;;;;;;24.67;4.33;;;7.70;99.90;;;;;;5011595;28;20105;-85
2024/01/25 00:14:28;;;;;;;33.30;6.33;;;7.60;99.90;;;;;;5011490;28;20018;-83
2024/01/25 00:16:53;;;;;;;24.77;3.77;;;7.60;99.90;;;;;;5012524;28;20080;-83
2024/01/25 00:19:19;;;;;;;25.27;3.60;;;7.50;99.90;;;;;;5011385;28;20037;-83
2024/01/25 00:21:45;;;;;;;20.93;4.30;;;7.50;99.90;;;;;;5011693;28;20053;-83
2024/01/25 00:24:12;;;;;;;30.00;4.07;;;7.50;99.90;;;;;;5011603;28;20033;-84
2024/01/25 00:26:38;;;;;;;22.43;4.43;;;7.40;99.90;;;;;;5013230;28;20033;-84
2024/01/25 00:29:05;;;;;;;21.07;3.60;;;7.30;99.90;;;;;;5016243;28;20025;-84
2024/01/25 00:31:31;;;;;;;24.23;4.07;;;7.30;99.90;;;;;;5014602;28;20038;-84
2024/01/25 00:34:00;;;;;;;24.67;4.53;;;7.30;99.90;;;;;;4997805;28;20050;-84
2024/01/25 00:36:26;;;;;;;18.90;3.50;;;7.30;99.90;;;;;;5016146;28;20022;-83
2024/01/25 00:38:53;;;;;;;19.93;2.97;;;7.20;99.90;;;;;;5016650;28;20018;-84
2024/01/25 00:41:19;;;;;;;26.57;3.50;;;7.20;99.90;;;;;;5015804;28;20030;-84
2024/01/25 00:43:45;;;;;;;18.80;3.53;;;7.10;99.90;;;;;;5014564;28;20033;-84
2024/01/25 00:46:11;;;;;;;20.57;3.23;;;7.10;99.90;;;;;;5014523;28;20017;-84
2024/01/25 00:48:39;;;;;;;21.63;3.97;;;7.00;99.90;;;;;;5015071;28;20068;-85
2024/01/25 00:51:07;;;;;;;28.40;3.53;;;7.00;99.90;;;;;;5015872;28;20026;-84
2024/01/25 00:53:33;;;;;;;23.70;3.40;;;7.00;99.90;;;;;;5015583;28;20092;-83
2024/01/25 00:55:59;;;;;;;20.50;4.00;;;7.00;99.90;;;;;;5014309;28;20099;-83
2024/01/25 00:58:25;;;;;;;19.13;3.20;;;6.90;99.90;;;;;;5014374;28;20033;-83
2024/01/25 01:00:51;;;;;;;21.20;3.77;;;6.90;99.90;;;;;;5015647;28;20021;-84
2024/01/25 01:03:19;;;;;;;21.10;3.30;;;6.90;99.90;;;;;;5015521;28;20030;-84
2024/01/25 01:05:45;;;;;;;21.10;3.03;;;6.80;99.90;;;;;;5014518;28;20359;-84
2024/01/25 01:08:11;;;;;;;19.60;4.47;;;6.80;99.90;;;;;;5014651;28;20037;-84
2024/01/25 01:10:37;;;;;;;26.03;4.07;;;6.80;99.90;;;;;;5015958;28;20010;-84
2024/01/25 01:13:03;;;;;;;17.57;3.07;;;6.70;99.90;;;;;;5015325;28;20026;-84
2024/01/25 01:15:29;;;;;;;31.10;3.90;;;6.70;99.90;;;;;;5017926;28;20442;-84
2024/01/25 01:17:54;;;;;;;26.07;3.20;;;6.70;99.90;;;;;;5034935;28;20029;-84
2024/01/25 01:20:20;;;;;;;21.57;3.70;;;6.70;99.90;;;;;;5035186;28;20026;-85
2024/01/25 01:22:46;;;;;;;22.83;4.27;;;6.60;99.90;;;;;;5034980;28;20061;-84
2024/01/25 01:25:13;;;;;;;22.00;5.03;;;6.70;99.90;;;;;;5035296;28;20021;-84
2024/01/25 01:27:39;;;;;;;19.57;3.80;;;6.60;99.90;;;;;;5033614;28;20021;-84
2024/01/25 01:30:07;;;;;;;25.23;3.63;;;6.60;99.90;;;;;;5033593;28;20354;-84
2024/01/25 01:32:35;;;;;;;18.40;3.67;;;6.60;99.90;;;;;;5033941;28;20068;-84
2024/01/25 01:35:01;;;;;;;29.27;3.97;;;6.50;99.90;;;;;;5033511;28;20091;-84
2024/01/25 01:37:28;;;;;;;25.13;3.23;;;6.50;99.90;;;;;;5035149;28;20485;-84
2024/01/25 01:39:55;;;;;;;20.83;4.03;;;6.50;99.90;;;;;;5034885;28;20096;-84
2024/01/25 01:42:22;;;;;;;24.57;3.20;;;6.40;99.90;;;;;;5034086;28;20018;-84
2024/01/25 01:44:50;;;;;;;17.70;2.83;;;6.40;99.90;;;;;;5034745;28;20021;-84
2024/01/25 01:47:15;;;;;;;18.37;2.80;;;6.40;99.90;;;;;;5032976;28;20120;-84
2024/01/25 01:49:42;;;;;;;20.20;2.77;;;6.40;99.90;;;;;;5032712;28;20168;-84
2024/01/25 01:52:08;;;;;;;19.33;3.23;;;6.40;99.90;;;;;;5034448;28;20021;-84
2024/01/25 01:54:34;;;;;;;22.80;3.00;;;6.40;99.90;;;;;;5034519;28;20025;-84
2024/01/25 01:56:59;;;;;;;17.60;2.73;;;6.30;99.90;;;;;;5032972;28;20032;-83
2024/01/25 01:59:25;;;;;;;18.07;3.43;;;6.30;99.90;;;;;;5032615;28;20037;-83
2024/01/25 02:01:52;;;;;;;17.87;3.47;;;6.20;99.90;;;;;;5033120;28;20028;-84
2024/01/25 02:04:17;;;;;;;22.60;4.57;;;6.20;99.90;;;;;;5033056;28;20029;-84
2024/01/25 02:06:44;;;;;;;22.87;3.40;;;6.30;99.90;;;;;;5034077;28;20486;-84
2024/01/25 02:09:09;;;;;;;19.20;2.77;;;6.20;99.90;;;;;;5034094;28;20104;-84
2024/01/25 02:11:35;;;;;;;22.67;2.67;;;6.20;99.90;;;;;;5032608;28;20454;-84
2024/01/25 02:14:01;;;;;;;21.77;3.43;;;6.20;99.90;;;;;;5032694;28;20018;-84
2024/01/25 02:16:26;;;;;;;29.53;4.67;;;6.10;99.90;;;;;;5032436;28;20407;-84
2024/01/25 02:18:54;;;;;;;24.67;3.83;;;6.20;99.90;;;;;;5033975;28;20032;-84
2024/01/25 02:21:19;;;;;;;21.07;3.27;;;6.10;99.90;;;;;;5034056;28;20021;-85
2024/01/25 02:23:45;;;;;;;28.23;3.30;;;6.10;99.90;;;;;;5034084;28;20099;-85
2024/01/25 02:26:12;;;;;;;17.60;3.43;;;5.90;99.90;;;;;;5032108;28;20024;-84
2024/01/25 02:28:38;;;;;;;20.63;3.53;;;6.00;99.90;;;;;;5033811;28;20021;-84
2024/01/25 02:31:04;;;;;;;24.90;3.83;;;6.00;99.90;;;;;;5033468;28;20441;-84
2024/01/25 02:33:30;;;;;;;20.47;4.30;;;6.00;99.90;;;;;;5033400;28;20033;-84
2024/01/25 02:35:55;;;;;;;28.10;4.03;;;6.00;99.90;;;;;;5032486;28;20037;-84
2024/01/25 02:38:21;;;;;;;24.80;4.10;;;5.90;99.90;;;;;;5033892;28;20026;-84
2024/01/25 02:40:47;;;;;;;36.00;5.90;;;5.90;99.90;;;;;;5033672;28;20040;-84
2024/01/25 02:43:13;;;;;;;28.03;4.83;;;5.90;99.90;;;;;;5031990;28;20060;-84
2024/01/25 02:45:39;;;;;;;21.07;3.87;;;5.90;99.90;;;;;;5033759;28;20561;-84
2024/01/25 02:48:05;;;;;;;16.80;3.33;;;5.80;99.90;;;;;;5033173;28;20116;-84
2024/01/25 02:50:30;;;;;;;20.27;4.00;;;5.80;99.90;;;;;;5031814;28;20028;-84
2024/01/25 02:52:58;;;;;;;25.83;4.40;;;5.60;99.90;;;;;;5033036;28;20377;-84
2024/01/25 02:55:23;;;;;;;29.47;4.47;;;5.70;99.90;;;;;;5033520;28;20041;-84
2024/01/25 02:57:49;;;;;;;15.03;3.90;;;5.70;99.90;;;;;;5033131;28;20067;-84
2024/01/25 03:00:15;;;;;;;19.10;3.50;;;5.60;99.90;;;;;;5031870;28;20017;-84
2024/01/25 03:02:40;;;;;;;21.23;3.70;;;5.60;99.90;;;;;;5033235;28;20026;-84
2024/01/25 03:05:06;;;;;;;29.87;3.87;;;5.60;99.90;;;;;;5033058;28;20021;-84
2024/01/25 03:07:32;;;;;;;19.87;3.40;;;5.50;99.90;;;;;;5032925;28;20079;-83
2024/01/25 03:09:57;;;;;;;13.67;3.13;;;5.50;99.90;;;;;;5032084;28;20074;-84
2024/01/25 03:12:23;;;;;;;21.83;4.33;;;5.50;99.90;;;;;;5015596;28;20034;-84
2024/01/25 03:14:49;;;;;;;16.17;3.37;;;5.50;99.90;;;;;;5033205;28;20032;-84
2024/01/25 03:17:14;;;;;;;29.00;3.33;;;5.40;99.90;;;;;;5033321;28;20022;-84
2024/01/25 03:19:40;;;;;;;26.10;3.70;;;5.40;99.90;;;;;;5033500;28;20021;-84
2024/01/25 03:22:06;;;;;;;17.80;3.03;;;5.40;99.90;;;;;;5032001;28;20108;-85
2024/01/25 03:24:33;;;;;;;21.30;3.77;;;5.40;99.90;;;;;;5031870;28;20442;-85
2024/01/25 03:26:58;;;;;;;27.73;5.00;;;5.30;99.90;;;;;;5033126;28;20060;-85
2024/01/25 03:29:24;;;;;;;22.23;4.10;;;5.30;99.90;;;;;;5032990;28;20017;-85
2024/01/25 03:31:50;;;;;;;21.53;4.40;;;5.30;99.90;;;;;;5032297;28;20056;-85
2024/01/25 03:34:16;;;;;;;25.27;4.83;;;5.20;99.90;;;;;;5032901;28;20029;-85
2024/01/25 03:36:41;;;;;;;24.50;3.93;;;5.20;99.90;;;;;;5032860;28;20022;-85
2024/01/25 03:39:08;;;;;;;19.93;3.93;;;5.20;99.90;;;;;;5031498;28;20056;-84
2024/01/25 03:41:33;;;;;;;24.23;3.63;;;5.10;99.90;;;;;;5031500;28;20017;-84
2024/01/25 03:43:59;;;;;;;23.97;4.37;;;5.10;99.90;;;;;;5032743;28;20090;-84
2024/01/25 03:46:25;;;;;;;29.63;3.73;;;5.10;99.90;;;;;;5031716;28;20021;-84
2024/01/25 03:48:51;;;;;;;26.90;4.80;;;5.00;99.90;;;;;;5033197;28;20022;-83
2024/01/25 03:51:16;;;;;;;22.77;3.87;;;5.10;99.90;;;;;;5032877;28;20022;-84
2024/01/25 03:53:42;;;;;;;21.77;3.63;;;5.00;99.90;;;;;;5031275;28;20048;-84
2024/01/25 03:56:17;;;;;;;18.47;4.00;;;5.00;99.90;;;;;;5032896;28;20048;-85
2024/01/25 03:58:43;;;;;;;28.20;3.77;;;5.00;99.90;;;;;;5032712;28;20029;-85
2024/01/25 04:01:09;;;;;;;16.83;3.17;;;5.00;99.90;;;;;;5032880;28;20030;-84
2024/01/25 04:03:34;;;;;;;26.47;3.63;;;4.90;99.90;;;;;;5036493;28;20101;-84
2024/01/25 04:06:00;;;;;;;20.80;3.00;;;5.00;99.90;;;;;;5036334;28;20092;-84
2024/01/25 04:08:26;;;;;;;22.97;3.30;;;4.90;99.90;;;;;;5036363;28;20032;-83
2024/01/25 04:10:51;;;;;;;22.23;3.03;;;4.90;99.90;;;;;;5036380;28;20018;-84
2024/01/25 04:13:17;;;;;;;14.00;2.90;;;4.90;99.90;;;;;;5036330;28;20014;-82
2024/01/25 04:15:42;;;;;;;19.23;3.90;;;4.80;99.90;;;;;;5035115;28;20470;-83
2024/01/25 04:18:08;;;;;;;27.97;3.80;;;4.90;99.90;;;;;;5036232;28;20477;-83
2024/01/25 04:20:34;;;;;;;23.80;4.07;;;4.70;99.90;;;;;;5035952;28;20473;-82
2024/01/25 04:23:00;;;;;;;12.73;3.67;;;4.80;99.90;;;;;;5036106;28;20037;-83
2024/01/25 04:25:25;;;;;;;14.60;3.47;;;4.80;99.90;;;;;;5035901;28;20021;-83
2024/01/25 04:27:51;;;;;;;22.97;3.40;;;4.80;99.90;;;;;;5035792;28;20033;-83
2024/01/25 04:30:18;;;;;;;21.00;3.50;;;4.80;99.90;;;;;;5034765;28;20049;-83
2024/01/25 04:32:44;;;;;;;22.10;3.37;;;4.70;99.90;;;;;;5034246;28;20041;-83
2024/01/25 04:35:10;;;;;;;19.40;3.20;;;4.70;99.90;;;;;;5034371;28;20504;-83
2024/01/25 04:37:36;;;;;;;15.23;3.47;;;4.70;99.90;;;;;;5034471;28;20021;-83
2024/01/25 04:40:02;;;;;;;23.03;3.33;;;4.70;99.90;;;;;;5035773;28;20029;-83
2024/01/25 04:42:28;;;;;;;18.80;3.47;;;4.70;99.90;;;;;;5034459;28;20041;-83
2024/01/25 04:44:53;;;;;;;23.63;3.20;;;4.70;99.90;;;;;;5036009;28;20025;-83
2024/01/25 04:47:19;;;;;;;23.07;3.53;;;4.60;99.90;;;;;;5034137;28;20037;-83
2024/01/25 04:49:45;;;;;;;16.30;4.07;;;4.60;99.90;;;;;;5035320;28;20029;-83
2024/01/25 04:52:10;;;;;;;25.83;3.57;;;4.60;99.90;;;;;;5034255;28;20030;-83
2024/01/25 04:54:36;;;;;;;15.50;3.43;;;4.60;99.90;;;;;;5034381;28;20029;-82
2024/01/25 04:57:06;;;;;;;24.20;3.57;;;4.70;99.90;;;;;;5035295;28;20366;-84
2024/01/25 04:59:34;;;;;;;24.80;3.73;;;4.60;99.90;;;;;;5036128;28;20022;-83
2024/01/25 05:02:00;;;;;;;18.43;3.80;;;4.60;99.90;;;;;;5033917;28;20067;-83
2024/01/25 05:04:26;;;;;;;23.90;3.90;;;4.60;99.90;;;;;;5035065;28;20053;-84
2024/01/25 05:06:51;;;;;;;24.53;4.23;;;4.50;99.90;;;;;;5035135;28;20033;-83
2024/01/25 05:09:17;;;;;;;19.90;3.50;;;4.50;99.90;;;;;;5026163;28;20022;-83
2024/01/25 05:11:42;;;;;;;29.07;4.87;;;4.60;99.90;;;;;;5020463;28;20017;-84
2024/01/25 05:14:08;;;;;;;22.57;3.87;;;4.50;99.90;;;;;;5034609;28;20377;-84
2024/01/25 05:16:35;;;;;;;13.53;3.20;;;4.40;99.90;;;;;;5033636;28;20478;-84
2024/01/25 05:19:02;;;;;;;16.90;2.87;;;4.40;99.90;;;;;;5033404;28;20362;-83
2024/01/25 05:21:28;;;;;;;20.97;3.80;;;4.50;99.90;;;;;;5033453;28;20029;-84
2024/01/25 05:23:53;;;;;;;20.30;3.73;;;4.40;99.90;;;;;;5033785;28;20021;-83
2024/01/25 05:26:19;;;;;;;18.53;3.93;;;4.40;99.90;;;;;;5034125;28;20425;-83
2024/01/25 05:28:45;;;;;;;19.67;4.40;;;4.40;99.90;;;;;;5034334;28;20469;-82
2024/01/25 05:31:12;;;;;;;21.20;3.30;;;4.40;99.90;;;;;;5034699;28;20041;-83
2024/01/25 05:33:42;;;;;;;21.40;4.47;;;4.30;99.90;;;;;;5034577;28;20017;-83
2024/01/25 05:36:09;;;;;;;20.57;3.50;;;4.30;99.90;;;;;;5034605;28;20021;-85
2024/01/25 05:38:35;;;;;;;26.93;4.83;;;4.30;99.90;;;;;;5033651;28;20252;-85
2024/01/25 05:41:00;;;;;;;21.90;6.07;;;4.30;99.90;;;;;;5033663;28;20029;-84
2024/01/25 05:43:26;;;;;;;25.60;3.83;;;4.40;99.90;;;;;;5033490;28;20036;-85
2024/01/25 05:45:52;;;;;;;21.50;4.33;;;4.30;99.90;;;;;;5031964;28;20431;-85
2024/01/25 05:48:18;;;;;;;31.80;4.23;;;4.30;99.90;;;;;;5013715;28;20049;-85
2024/01/25 05:50:43;;;;;;;23.83;4.43;;;4.30;99.90;;;;;;5013482;28;20018;-84
2024/01/25 05:53:09;;;;;;;26.60;4.07;;;4.20;99.90;;;;;;5014648;28;20156;-84
2024/01/25 05:55:35;;;;;;;23.70;3.63;;;4.20;99.90;;;;;;5014933;28;20072;-84
2024/01/25 05:58:00;;;;;;;33.03;5.23;;;4.20;99.90;;;;;;5013402;28;20498;-84
2024/01/25 06:00:28;;;;;;;23.60;4.13;;;4.20;99.90;;;;;;5014578;28;20040;-84
2024/01/25 06:02:53;;;;;;;26.13;4.23;;;4.20;99.90;;;;;;5013115;28;20033;-83
2024/01/25 06:05:19;;;;;;;24.47;4.70;;;4.20;99.90;;;;;;5013106;28;20030;-84
2024/01/25 06:07:45;;;;;;;19.13;4.23;;;4.20;99.90;;;;;;5012801;28;20022;-84
2024/01/25 06:10:11;;;;;;;27.37;3.70;;;4.20;99.90;;;;;;5029599;28;20031;-83
2024/01/25 06:12:36;;;;;;;20.87;4.13;;;4.20;99.90;;;;;;5025939;28;20496;-84
2024/01/25 06:15:02;;;;;;;22.40;4.77;;;4.10;99.90;;;;;;5032860;28;20018;-84
2024/01/25 06:17:28;;;;;;;24.97;4.20;;;4.10;99.90;;;;;;5031031;28;20398;-84
2024/01/25 06:19:54;;;;;;;31.00;5.17;;;4.10;99.90;;;;;;5032542;28;20104;-84
2024/01/25 06:22:19;;;;;;;28.07;4.47;;;4.10;99.90;;;;;;5027663;28;20072;-84
2024/01/25 06:24:45;;;;;;;19.93;4.37;;;4.10;99.90;;;;;;5018843;28;20033;-84
2024/01/25 06:27:11;;;;;;;16.57;3.77;;;4.10;99.90;;;;;;5013256;28;20486;-84
2024/01/25 06:29:36;;;;;;;24.57;4.43;;;4.10;99.90;;;;;;5029987;28;20112;-85
2024/01/25 06:32:02;;;;;;;26.30;4.77;;;4.10;99.90;;;;;;5027919;28;20084;-84
2024/01/25 06:34:28;;;;;;;34.70;5.00;;;4.10;99.90;;;;;;5023146;28;20114;-84
2024/01/25 06:36:53;;;;;;;27.23;4.43;;;4.10;99.90;;;;;;5021269;28;20029;-84
2024/01/25 06:39:19;;;;;;;17.10;4.40;;;4.10;99.90;;;;;;5020698;28;20021;-84
2024/01/25 06:41:44;;;;;;;29.83;4.10;;;4.10;99.90;;;;;;5022806;28;20104;-85
2024/01/25 06:44:10;;;;;;;23.33;3.97;;;4.10;99.90;;;;;;5022270;28;20067;-85
2024/01/25 06:46:36;;;;;;;27.13;4.33;;;4.10;99.90;;;;;;5023366;28;20042;-85
2024/01/25 06:49:02;;;;;;;22.57;4.30;;;4.10;99.90;;;;;;5020851;28;20125;-85
2024/01/25 06:51:28;;;;;;;20.30;4.07;;;4.10;99.90;;;;;;5021875;28;20432;-84
2024/01/25 06:53:54;;;;;;;26.47;4.17;;;4.10;99.90;;;;;;5029495;28;20018;-84
2024/01/25 06:56:20;;;;;;;22.73;4.40;;;4.10;99.90;;;;;;5031799;28;20539;-84
2024/01/25 06:58:45;;;;;;;28.87;4.80;;;4.10;99.90;;;;;;5031772;28;20026;-85
2024/01/25 07:01:11;;;;;;;27.30;5.10;;;4.10;99.90;;;;;;5033111;28;20021;-86
2024/01/25 07:03:37;;;;;;;22.47;4.10;;;4.20;99.90;;;;;;5032960;28;20041;-85
2024/01/25 07:06:03;;;;;;;22.57;4.13;;;4.10;99.90;;;;;;5033302;28;20049;-82
2024/01/25 07:08:29;;;;;;;21.50;3.80;;;4.00;99.90;;;;;;5032956;28;20041;-84
2024/01/25 07:10:56;;;;;;;28.20;4.13;;;4.10;99.90;;;;;;5031690;28;20021;-85
2024/01/25 07:13:21;;;;;;;21.60;4.63;;;4.00;99.90;;;;;;5027173;28;20112;-84
2024/01/25 07:15:47;;;;;;;27.73;4.43;;;4.10;99.90;;;;;;5032418;28;20104;-84
2024/01/25 07:18:13;;;;;;;24.53;4.80;;;4.00;99.90;;;;;;5032875;28;20548;-83
2024/01/25 07:20:39;;;;;;;21.77;4.93;;;4.10;99.90;;;;;;5031275;28;20037;-83
2024/01/25 07:23:04;;;;;;;28.43;4.63;;;4.00;99.90;;;;;;5032423;28;20017;-82
2024/01/25 07:25:30;;;;;;;27.40;4.63;;;4.00;99.90;;;;;;5032501;28;20025;-83
2024/01/25 07:27:56;;;;;;;24.63;4.90;;;4.00;99.90;;;;;;5031393;28;20165;-83
2024/01/25 07:30:21;;;;;;;26.60;4.10;;;4.10;99.90;;;;;;5031462;28;20076;-83
2024/01/25 07:32:49;;;;;;;28.87;4.97;;;4.00;99.90;;;;;;5032380;28;20393;-84
2024/01/25 07:35:15;;;;;;;27.63;4.87;;;4.10;99.90;;;;;;5032932;28;20432;-83
2024/01/25 07:37:41;;;;;;;27.17;4.87;;;4.00;99.90;;;;;;5036691;28;20094;-83
2024/01/25 07:40:08;;;;;;;21.10;4.53;;;4.10;99.90;;;;;;5036853;28;20488;-84
2024/01/25 07:42:33;;;;;;;22.80;5.07;;;4.10;99.90;;;;;;5036765;28;20489;-80
2024/01/25 07:44:59;;;;;;;23.60;4.27;;;4.10;99.90;;;;;;5036728;28;20041;-81
2024/01/25 07:47:25;;;;;;;35.47;5.20;;;4.20;99.90;;;;;;5036293;28;20033;-82
2024/01/25 07:49:50;;;;;;;25.03;5.40;;;4.20;99.90;;;;;;5036690;28;20470;-82
2024/01/25 07:52:16;;;;;;;23.67;4.03;;;4.20;99.90;;;;;;5036488;28;20493;-82
2024/01/25 07:54:41;;;;;;;26.87;4.50;;;4.30;99.90;;;;;;5036512;28;20052;-82
2024/01/25 07:57:07;;;;;;;26.30;5.00;;;4.30;99.90;;;;;;5036525;28;20075;-83
2024/01/25 07:59:33;;;;;;;23.80;4.17;;;4.30;99.90;;;;;;5036455;28;20036;-82
2024/01/25 08:01:59;;;;;;;23.53;4.23;;;4.40;99.90;;;;;;5036506;28;20029;-82
2024/01/25 08:04:24;;;;;;;27.37;5.03;;;4.30;99.90;;;;;;5035099;28;20024;-82
2024/01/25 08:06:52;;;;;;;25.43;5.20;;;4.30;99.90;;;;;;5035115;28;20029;-82
2024/01/25 08:09:18;;;;;;;25.10;5.63;;;4.40;99.90;;;;;;5034844;28;20025;-82
2024/01/25 08:11:44;;;;;;;23.40;6.03;;;4.40;99.90;;;;;;5036302;28;20064;-82
2024/01/25 08:14:10;;;;;;;24.60;5.27;;;4.40;99.90;;;;;;5034799;28;20417;-82
2024/01/25 08:16:36;;;;;;;23.33;4.83;;;4.60;99.90;;;;;;5036033;28;20029;-82
2024/01/25 08:19:02;;;;;;;26.47;5.10;;;4.50;99.90;;;;;;5036280;28;20022;-82
2024/01/25 08:21:28;;;;;;;22.40;4.97;;;4.60;99.90;;;;;;5036701;28;20018;-82
2024/01/25 08:23:54;;;;;;;26.20;4.73;;;4.60;99.90;;;;;;5036252;28;20051;-82
2024/01/25 08:26:19;;;;;;;23.03;4.83;;;4.60;99.90;;;;;;5034585;28;20027;-82
2024/01/25 08:28:46;;;;;;;27.77;5.07;;;4.60;99.90;;;;;;5034527;28;20108;-83
2024/01/25 08:31:12;;;;;;;23.63;4.63;;;4.70;99.90;;;;;;5035751;28;20455;-82
2024/01/25 08:33:41;;;;;;;30.40;5.33;;;4.70;99.90;;;;;;5034202;28;20083;-83
2024/01/25 08:36:07;;;;;;;21.67;4.50;;;4.70;99.90;;;;;;5035967;28;20026;-83
2024/01/25 08:38:33;;;;;;;22.80;4.80;;;4.80;99.90;;;;;;5035971;28;20021;-82
2024/01/25 08:40:58;;;;;;;28.33;5.87;;;4.80;99.90;;;;;;5035574;28;20075;-82
2024/01/25 08:43:24;;;;;;;20.67;4.60;;;4.90;99.90;;;;;;5034383;28;20029;-82
2024/01/25 08:45:50;;;;;;;30.20;5.47;;;4.90;99.90;;;;;;5035623;28;20030;-82
2024/01/25 08:48:15;;;;;;;24.60;5.23;;;5.00;99.90;;;;;;5033370;28;20036;-82
2024/01/25 08:50:41;;;;;;;20.33;5.00;;;5.00;99.90;;;;;;5033999;28;20018;-82
2024/01/25 08:53:07;;;;;;;21.37;4.70;;;5.10;99.90;;;;;;5035495;28;20029;-82
2024/01/25 08:55:32;;;;;;;16.83;3.87;;;5.10;99.90;;;;;;5035164;28;20061;-82
2024/01/25 08:57:58;;;;;;;25.47;4.90;;;5.10;99.90;;;;;;5035444;28;20026;-82
2024/01/25 09:00:24;;;;;;;21.83;4.67;;;5.20;99.90;;;;;;5035498;28;20033;-82
2024/01/25 09:02:49;;;;;;;27.37;6.07;;;5.30;99.90;;;;;;5035086;28;20041;-82
2024/01/25 09:05:15;;;;;;;31.50;4.93;;;5.30;99.90;;;;;;5035406;28;20389;-82
2024/01/25 09:07:41;;;;;;;22.97;4.63;;;5.40;99.90;;;;;;5034053;28;20053;-82
2024/01/25 09:10:08;;;;;;;19.00;4.80;;;5.50;99.90;;;;;;5035055;28;20105;-82
2024/01/25 09:12:35;;;;;;;28.50;5.47;;;5.50;99.90;;;;;;5035023;28;20104;-82
2024/01/25 09:15:02;;;;;;;23.53;4.20;;;5.60;99.90;;;;;;5035189;28;20034;-82
2024/01/25 09:17:27;;;;;;;19.97;5.37;;;5.50;99.90;;;;;;5033785;28;20112;-82
2024/01/25 09:19:53;;;;;;;25.53;5.20;;;5.60;99.90;;;;;;5035054;28;20056;-82
2024/01/25 09:22:19;;;;;;;27.87;5.77;;;5.70;99.90;;;;;;5033704;28;20473;-82
2024/01/25 09:24:48;;;;;;;23.40;5.37;;;5.80;99.90;;;;;;5034582;28;20155;-82
2024/01/25 09:27:14;;;;;;;29.17;5.70;;;5.90;99.90;;;;;;5034793;28;20029;-82
2024/01/25 09:29:41;;;;;;;24.97;6.27;;;5.90;99.90;;;;;;5034791;28;20039;-82
2024/01/25 09:32:08;;;;;;;18.90;4.37;;;6.20;99.90;;;;;;5034214;28;20041;-82
2024/01/25 09:34:38;;;;;;;22.80;5.23;;;6.10;99.90;;;;;;5034980;28;20097;-82
2024/01/25 09:37:04;;;;;;;28.07;5.97;;;6.20;99.90;;;;;;5033425;28;20032;-82
2024/01/25 09:39:31;;;;;;;19.43;4.83;;;6.30;99.90;;;;;;5034262;28;20072;-82
2024/01/25 09:41:57;;;;;;;20.50;4.13;;;6.40;99.90;;;;;;5034658;28;20116;-82
2024/01/25 09:44:23;;;;;;;21.50;5.63;;;6.30;99.90;;;;;;5034797;28;20108;-82
2024/01/25 09:46:50;;;;;;;24.03;5.67;;;6.40;99.90;;;;;;5034438;28;20120;-82
2024/01/25 09:49:17;;;;;;;24.23;5.23;;;6.50;99.90;;;;;;5034615;28;20048;-81
2024/01/25 09:51:43;;;;;;;32.10;6.23;;;6.50;99.90;;;;;;5034129;28;20025;-80
2024/01/25 09:54:09;;;;;;;26.27;5.37;;;6.60;99.90;;;;;;5034186;28;20090;-82
2024/01/25 09:56:36;;;;;;;25.53;4.90;;;6.50;99.90;;;;;;5034361;28;20386;-81
2024/01/25 09:59:04;;;;;;;24.87;5.43;;;6.60;99.90;;;;;;5031913;28;20478;-81
2024/01/25 10:01:29;;;;;;;19.40;4.47;;;6.60;99.90;;;;;;5033318;28;20397;-81
2024/01/25 10:03:56;;;;;;;28.77;6.03;;;6.70;99.90;;;;;;5032685;28;20029;-81
2024/01/25 10:06:22;;;;;;;17.03;4.63;;;6.70;99.90;;;;;;5034027;28;20025;-81
2024/01/25 10:08:48;;;;;;;22.83;5.50;;;6.80;99.90;;;;;;5033975;28;20026;-81
2024/01/25 10:11:14;;;;;;;25.60;6.07;;;6.90;99.90;;;;;;5034317;28;20523;-81
2024/01/25 10:13:44;;;;;;;27.50;5.97;;;7.00;99.90;;;;;;5034073;28;20029;-81
2024/01/25 10:16:14;;;;;;;26.50;6.77;;;7.10;99.90;;;;;;5033800;28;20037;-82
2024/01/25 10:18:45;;;;;;;23.90;4.27;;;7.30;99.90;;;;;;5034125;28;20034;-82
2024/01/25 10:21:13;;;;;;;25.80;4.67;;;7.50;99.90;;;;;;5032556;28;20444;-82
2024/01/25 10:23:39;;;;;;;23.60;4.60;;;7.70;99.90;;;;;;5033853;28;20539;-81
2024/01/25 10:26:05;;;;;;;25.73;5.20;;;7.90;99.90;;;;;;5033837;28;20025;-82
2024/01/25 10:28:31;;;;;;;22.73;4.80;;;8.00;99.90;;;;;;5032392;28;20025;-81
2024/01/25 10:31:01;;;;;;;22.97;4.13;;;8.20;99.90;;;;;;5032051;28;20119;-82
2024/01/25 10:33:27;;;;;;;21.43;4.63;;;8.30;99.90;;;;;;5033301;28;20183;-82
2024/01/25 10:35:55;;;;;;;20.80;4.60;;;8.50;99.90;;;;;;5033567;28;20026;-82
2024/01/25 10:38:21;;;;;;;20.33;4.93;;;8.60;99.90;;;;;;5033345;28;20029;-82
2024/01/25 10:40:47;;;;;;;21.92;4.32;;;8.80;99.90;;;;;;5033411;28;20362;-82
2024/01/25 10:43:13;;;;;;;23.38;4.13;;;9.00;99.90;;;;;;5033613;28;20049;-81
2024/01/25 10:45:39;;;;;;;24.35;4.25;;;9.30;99.90;;;;;;5033559;28;20087;-82
2024/01/25 10:48:07;;;;;;;22.30;4.88;;;9.60;99.90;;;;;;5033222;28;20030;-82
2024/01/25 10:50:32;;;;;;;21.65;4.07;;;9.80;99.90;;;;;;5031984;28;20383;-82
2024/01/25 10:52:59;;;;;;;30.25;5.68;;;10.00;99.90;;;;;;5031841;28;20038;-82
2024/01/25 10:55:25;;;;;;;21.65;4.97;;;10.10;99.90;;;;;;5032043;28;20028;-81
2024/01/25 10:57:52;;;;;;;17.85;4.43;;;10.10;99.90;;;;;;5033069;28;20023;-82
2024/01/25 11:00:18;;;;;;;23.55;4.95;;;10.10;99.90;;;;;;5033506;28;20552;-83
2024/01/25 11:02:46;;;;;;;17.85;5.43;;;10.10;99.90;;;;;;5033223;28;20100;-83
2024/01/25 11:05:17;;;;;;;27.80;5.25;;;10.10;99.90;;;;;;5031857;28;20052;-82
2024/01/25 11:07:47;;;;;;;24.65;4.95;;;10.10;99.90;;;;;;5032982;28;20033;-82
2024/01/25 11:10:18;;;;;;;23.77;4.85;;;10.10;99.90;;;;;;5032627;28;20432;-82
2024/01/25 11:12:51;;;;;;;22.73;4.93;;;10.10;99.90;;;;;;5033023;28;20025;-82
2024/01/25 11:15:30;;;;;;;20.53;4.90;;;10.20;99.90;;;;;;5033081;28;20014;-82
2024/01/25 11:17:56;;;;;;;23.40;5.47;;;10.40;99.90;;;;;;5031843;28;20393;-83
2024/01/25 11:20:23;;;;;;;18.80;4.25;;;10.40;99.90;;;;;;5032999;28;20041;-81
2024/01/25 11:23:04;;;;;;;26.63;5.53;;;10.50;99.90;;;;;;5032708;28;20025;-82
2024/01/25 11:25:36;;;;;;;25.10;5.35;;;10.50;99.90;;;;;;5032905;28;20033;-82
2024/01/25 11:28:03;;;;;;;19.88;5.57;;;10.60;99.90;;;;;;5032032;28;20385;-83
2024/01/25 11:30:34;;;;;;;28.77;5.80;;;10.60;99.90;;;;;;5031348;28;20436;-82
2024/01/25 11:33:00;;;;;;;25.23;5.28;;;10.60;99.90;;;;;;5031388;28;20117;-83
2024/01/25 11:35:26;;;;;;;23.30;4.97;;;10.60;99.90;;;;;;5032729;28;20083;-82
2024/01/25 11:37:52;;;;;;;23.45;5.75;;;10.60;99.90;;;;;;5032790;28;20032;-82
2024/01/25 11:40:18;;;;;;;24.70;6.80;;;10.70;99.90;;;;;;5032665;28;20033;-82
2024/01/25 11:42:49;;;;;;;26.40;6.53;;;10.70;99.90;;;;;;5033609;28;20390;-82
2024/01/25 11:45:14;;;;;;;28.35;6.22;;;10.70;99.90;;;;;;5031617;28;20029;-82
2024/01/25 11:47:41;;;;;;;23.80;6.43;;;10.70;99.90;;;;;;5030909;28;20076;-82
2024/01/25 11:50:09;;;;;;;26.52;7.45;;;10.80;99.90;;;;;;5032447;28;20079;-83
2024/01/25 11:52:35;;;;;;;20.80;6.13;;;10.70;99.90;;;;;;5032314;28;20029;-82
2024/01/25 11:55:05;;;;;;;28.13;6.53;;;10.70;99.90;;;;;;5032783;28;20523;-83
2024/01/25 11:57:34;;;;;;;28.10;6.25;;;10.60;99.90;;;;;;5032542;28;20029;-82
2024/01/25 12:00:00;;;;;;;26.20;7.70;;;10.50;99.90;;;;;;5031041;28;20032;-82
2024/01/25 12:02:27;;;;;;;25.17;6.32;;;10.40;99.90;;;;;;5032664;28;20072;-82
2024/01/25 12:04:55;;;;;;;27.30;6.15;;;10.30;99.90;;;;;;5032413;28;20029;-82
2024/01/25 12:07:20;;;;;;;23.60;5.75;;;10.30;99.90;;;;;;5031206;28;20052;-82
2024/01/25 12:09:57;;;;;;;22.92;6.13;;;10.30;99.90;;;;;;5029457;28;20029;-82
2024/01/25 12:12:23;;;;;;;20.55;5.88;;;10.30;99.90;;;;;;5022816;28;20207;-83
2024/01/25 12:14:48;;;;;;;31.38;6.30;;;10.20;99.90;;;;;;5031410;28;20018;-82
2024/01/25 12:17:14;;;;;;;26.75;7.32;;;10.20;99.90;;;;;;5032496;28;20022;-82
2024/01/25 12:19:40;;;;;;;29.15;7.20;;;10.20;99.90;;;;;;5032269;28;20036;-82
2024/01/25 12:22:05;;;;;;;26.60;6.50;;;10.10;99.90;;;;;;5032500;28;20044;-84
2024/01/25 12:24:31;;;;;;;22.15;6.07;;;10.10;99.90;;;;;;5036130;28;20051;-83
2024/01/25 12:26:57;;;;;;;28.55;6.40;;;10.10;99.90;;;;;;5035997;28;20048;-83
2024/01/25 12:29:23;;;;;;;27.98;6.97;;;10.20;99.90;;;;;;5035902;28;20127;-83
2024/01/25 12:31:49;;;;;;;23.17;6.03;;;10.30;99.90;;;;;;5033734;28;20509;-83
2024/01/25 12:34:15;;;;;;;26.63;5.90;;;10.50;99.90;;;;;;5035444;28;20116;-82
2024/01/25 12:36:41;;;;;;;25.17;5.22;;;10.70;99.90;;;;;;5034694;28;20027;-83
2024/01/25 12:39:07;;;;;;;21.05;5.97;;;10.90;99.90;;;;;;5034538;28;20116;-82
2024/01/25 12:41:32;;;;;;;22.65;5.50;;;11.00;99.90;;;;;;5035389;28;20022;-83